Home > Products > Valid Products > TAF

000
FTUS43 KLSX 302322
TAFCOU
TAF
KCOU 302322Z 0100/0124 25005KT P6SM OVC150
     FM010800 16006KT 5SM TSRA OVC040CB
     FM011800 17009KT P6SM VCTS OVC040CB=



000
FTUS43 KLSX 302322
TAFSTL
TAF
KSTL 302322Z 0100/0206 30005KT P6SM SCT040 BKN150
     FM010800 23003KT P6SM VCSH OVC050
     FM011100 20004KT 5SM SHRA BR OVC040
     FM011800 18008KT P6SM VCTS BKN040CB
     FM020000 15009KT 5SM SHRA VCTS OVC030CB=



000
FTUS43 KLSX 302322
TAFUIN
TAF
KUIN 302322Z 0100/0124 VRB04KT P6SM SCT040 BKN150
     FM010900 23004KT 6SM BR VCSH OVC050
     FM011200 20005KT 5SM SHRA BR OVC040
     FM011700 14006KT P6SM VCTS BKN040CB=



000
FTUS43 KLSX 302322
TAFSUS
TAF
KSUS 302322Z 0100/0124 VRB03KT P6SM BKN150
     FM010800 24003KT P6SM VCSH OVC050
     FM011100 24004KT 5SM SHRA BR OVC040
     FM011800 16008KT P6SM VCTS BKN040CB=



000
FTUS43 KLSX 302059 AAA
TAFCOU
TAF AMD
KCOU 302059Z 3021/0118 30010KT P6SM BKN150
     FM010200 VRB04KT P6SM BKN100
     FM010800 11005KT 6SM TSRA OVC040CB
     FM011400 17009KT P6SM SHRA VCTS OVC040CB=



000
FTUS43 KLSX 302059 AAA
TAFUIN
TAF AMD
KUIN 302059Z 3021/0118 31011KT P6SM SCT040 BKN250
     FM010100 VRB04KT P6SM BKN100
     FM010900 17005KT 6SM BR VCSH OVC050=



000
FTUS43 KLSX 302059 AAA
TAFSTL
TAF AMD
KSTL 302059Z 3021/0124 28010KT P6SM SCT050 BKN250
     FM010200 VRB03KT P6SM BKN100
     FM011000 24004KT 6SM BR VCSH OVC040
     FM011800 18008KT P6SM VCTS SCT040CB BKN120=



000
FTUS43 KLSX 302059 AAA
TAFSUS
TAF AMD
KSUS 302059Z 3021/0118 29010KT P6SM SCT050 BKN250
     FM010200 VRB03KT P6SM BKN100
     FM011000 VRB04KT 6SM BR VCSH OVC040=



000
FTUS43 KLSX 301722
TAFSTL
TAF
KSTL 301722Z 3018/0124 29010KT P6SM SCT150
     FM010200 VRB03KT P6SM BKN100
     FM011000 24004KT 6SM BR VCSH OVC040
     FM011800 18008KT P6SM VCTS SCT040CB BKN120=



000
FTUS43 KLSX 301722
TAFCOU
TAF
KCOU 301722Z 3018/0118 30010KT P6SM BKN150
     FM010200 VRB04KT P6SM BKN100
     FM010800 11005KT 6SM TSRA OVC040CB
     FM011400 17009KT P6SM SHRA VCTS OVC040CB=



000
FTUS43 KLSX 301722
TAFSUS
TAF
KSUS 301722Z 3018/0118 29010KT P6SM SCT150
     FM010200 VRB03KT P6SM BKN100
     FM011000 VRB04KT 6SM BR VCSH OVC040=



000
FTUS43 KLSX 301722
TAFUIN
TAF
KUIN 301722Z 3018/0118 31011KT P6SM SCT040
     FM010100 VRB04KT P6SM BKN100
     FM010900 17005KT 6SM BR VCSH OVC050=



000
FTUS43 KLSX 301456 AAA
TAFUIN
TAF AMD
KUIN 301456Z 3015/0112 26006KT P6SM SCT100
     FM301800 31011KT P6SM SCT040
     FM010000 VRB05KT P6SM BKN080
     FM010900 12004KT 6SM -SHRA OVC040=



000
FTUS43 KLSX 301456 AAA
TAFSUS
TAF AMD
KSUS 301456Z 3015/0112 26005KT P6SM SCT100
     FM301700 29010KT P6SM SCT040 SCT100
     FM010200 VRB05KT P6SM SCT080
     FM011000 10006KT 6SM -SHRA OVC040=



000
FTUS43 KLSX 301456 AAA
TAFSTL
TAF AMD
KSTL 301456Z 3015/0118 28010KT P6SM SCT040 SCT100
     FM010200 VRB05KT P6SM SCT080
     FM011000 10006KT 6SM -SHRA OVC040=



000
FTUS43 KLSX 301456 AAA
TAFCOU
TAF AMD
KCOU 301456Z 3015/0112 27007KT P6SM SCT100
     FM301700 29011KT P6SM SCT040
     FM010200 VRB05KT P6SM BKN100
     FM011000 12005KT 6SM -SHRA OVC040=



000
FTUS43 KLSX 301200 AAA
TAFUIN
TAF AMD
KUIN 301225Z 3012/0112 25005KT 6SM BR SKC
     FM301500 30012KT P6SM SCT040
     FM010000 VRB05KT P6SM BKN080
     FM010900 12004KT 6SM -SHRA OVC040=



000
FTUS43 KLSX 301200 AAA
TAFUIN
TAF AMD
KUIN 301225Z 3012/0112 25005KT 6SM BR SKC
     FM301500 30012KT P6SM SCT040
     FM010000 VRB05KT P6SM BKN080
     FM010900 12004KT 6SM -SHRA OVC040=



000
FTUS43 KLSX 301200 AAA
TAFSUS
TAF AMD
KSUS 301224Z 3012/0112 VRB04KT P6SM SKC
     FM301600 28011KT P6SM SCT040 SCT100
     FM010200 VRB05KT P6SM SCT080
     FM011000 10006KT 6SM -SHRA OVC040=



000
FTUS43 KLSX 301200 AAA
TAFSUS
TAF AMD
KSUS 301224Z 3012/0112 VRB04KT P6SM SKC
     FM301600 28011KT P6SM SCT040 SCT100
     FM010200 VRB05KT P6SM SCT080
     FM011000 10006KT 6SM -SHRA OVC040=



000
FTUS43 KLSX 301100
TAFCOU
TAF
KCOU 301120Z 3012/0112 27005KT P6SM SKC
     FM301600 28010KT P6SM SCT040
     FM010200 VRB05KT P6SM BKN100
     FM011000 12005KT 6SM -SHRA OVC040=



000
FTUS43 KLSX 301100
TAFUIN
TAF
KUIN 301120Z 3012/0112 25005KT 6SM BR SKC
      TEMPO 3012/3014 5SM BR
     FM301500 30012KT P6SM SCT040
     FM010000 VRB05KT P6SM BKN080
     FM010900 12004KT 6SM -SHRA OVC040=



000
FTUS43 KLSX 301100
TAFSTL
TAF
KSTL 301120Z 3012/0118 25004KT P6SM SCT120
     FM301500 28012KT P6SM SCT040 SCT100
     FM010200 VRB05KT P6SM SCT080
     FM011000 10006KT 6SM -SHRA OVC040=



000
FTUS43 KLSX 301100
TAFSUS
TAF
KSUS 301120Z 3012/0112 VRB04KT P6SM SKC
      TEMPO 3012/3014 5SM BR
     FM301500 28011KT P6SM SCT040 SCT100
     FM010200 VRB05KT P6SM SCT080
     FM011000 10006KT 6SM -SHRA OVC040=



000
FTUS43 KLSX 301100
TAFSUS
TAF
KSUS 301120Z 3012/0112 VRB04KT P6SM SKC
      TEMPO 3012/3014 5SM BR
     FM301500 28011KT P6SM SCT040 SCT100
     FM010200 VRB05KT P6SM SCT080
     FM011000 10006KT 6SM -SHRA OVC040=



000
FTUS43 KLSX 301100
TAFUIN
TAF
KUIN 301120Z 3012/0112 25005KT 6SM BR SKC
      TEMPO 3012/3014 5SM BR
     FM301500 30012KT P6SM SCT040
     FM010000 VRB05KT P6SM BKN080
     FM010900 12004KT 6SM -SHRA OVC040=



000
FTUS43 KLSX 301100
TAFSTL
TAF
KSTL 301120Z 3012/0118 25004KT P6SM SCT120
     FM301500 28012KT P6SM SCT040 SCT100
     FM010200 VRB05KT P6SM SCT080
     FM011000 10006KT 6SM -SHRA OVC040=



000
FTUS43 KLSX 301100
TAFCOU
TAF
KCOU 301120Z 3012/0112 27005KT P6SM SKC
     FM301600 28010KT P6SM SCT040
     FM010200 VRB05KT P6SM BKN100
     FM011000 12005KT 6SM -SHRA OVC040=



000
FTUS43 KLSX 300800 AAA
TAFSTL
TAF AMD
KSTL 300855Z 3009/0112 25004KT P6SM SKC
     FM301500 28011KT P6SM SCT040 SCT100
     FM010200 VRB05KT P6SM SCT080
     FM011000 10006KT 6SM -SHRA OVC040=



000
FTUS43 KLSX 300500
TAFSUS
TAF
KSUS 300520Z 3006/0106 VRB04KT 6SM BR SCT050
     FM300700 VRB04KT 3SM BR SKC
     FM301500 28011KT P6SM SCT040 SCT100
     FM010200 VRB05KT P6SM SCT080=



000
FTUS43 KLSX 300500
TAFCOU
TAF
KCOU 300520Z 3006/0106 27005KT P6SM SKC
     FM301600 28010KT P6SM SCT040
     FM010200 VRB05KT P6SM BKN100=



000
FTUS43 KLSX 300500
TAFSTL
TAF
KSTL 300520Z 3006/0112 27004KT P6SM SCT050
     FM301500 28011KT P6SM SCT040 SCT100
     FM010200 VRB05KT P6SM SCT080
     FM011000 10006KT 6SM -SHRA OVC040=



000
FTUS43 KLSX 300500
TAFUIN
TAF
KUIN 300520Z 3006/0106 27005KT 6SM BR SCT060
     FM301600 32009KT P6SM SCT040
     FM010000 VRB05KT P6SM BKN080=



000
FTUS43 KLSX 300300 AAB
TAFSTL
TAF AMD
KSTL 300317Z 3003/0106 27004KT P6SM VCSH SCT050
     FM300500 27004KT P6SM SCT050
     FM301500 28011KT P6SM SCT040 SCT100
     FM010200 VRB05KT P6SM SCT080=



000
FTUS43 KLSX 300000 AAA
TAFSTL
TAF AMD
KSTL 300029Z 3000/0106 30007KT P6SM VCTS SCT040CB SCT100
     FM300200 27004KT P6SM SCT050
     FM301500 28011KT P6SM SCT040 SCT100
     FM010200 VRB05KT P6SM SCT080=



000
FTUS43 KLSX 300000 AAB
TAFSUS
TAF AMD
KSUS 300029Z 3000/3024 29006KT P6SM VCTS SCT035CB BKN050
     FM300100 27004KT P6SM SCT050
     FM300400 VRB04KT 4SM BR SCT050
     FM301500 28011KT P6SM SCT040 SCT100=



000
FTUS43 KLSX 292300 AAA
TAFSUS
TAF AMD
KSUS 292356Z 3000/3024 29006KT P6SM -SHRA VCTS SCT035CB BKN050
     FM300100 27004KT P6SM SCT050
     FM300400 VRB04KT 4SM BR SCT050
     FM301500 28011KT P6SM SCT040 SCT100=



000
FTUS43 KLSX 292300 AAA
TAFSUS
TAF AMD
KSUS 292356Z 3000/3024 29006KT P6SM -SHRA VCTS SCT035CB BKN050
     FM300100 27004KT P6SM SCT050
     FM300400 VRB04KT 4SM BR SCT050
     FM301500 28011KT P6SM SCT040 SCT100=



000
FTUS43 KLSX 292300
TAFSUS
TAF
KSUS 292324Z 3000/3024 29006KT P6SM -SHRA VCTS SCT035CB BKN050
     FM300100 27004KT P6SM SCT050
     FM301500 28011KT P6SM SCT040 SCT100=



000
FTUS43 KLSX 292300
TAFCOU
TAF
KCOU 292324Z 3000/3024 30012KT P6SM SCT040
     FM300100 27005KT P6SM SKC
     FM301600 28010KT P6SM SCT040=



000
FTUS43 KLSX 292300
TAFSTL
TAF
KSTL 292324Z 3000/0106 31007KT P6SM VCTS SCT040CB SCT100
      TEMPO 3000/3001 2SM -TSRA
     FM300200 27004KT P6SM SCT050
     FM301500 28011KT P6SM SCT040 SCT100
     FM010200 VRB05KT P6SM SCT080=



000
FTUS43 KLSX 292300
TAFUIN
TAF
KUIN 292324Z 3000/3024 29010KT P6SM SCT050 SCT100
     FM300100 27005KT P6SM SCT060
     FM301600 31009KT P6SM SCT040=



000
FTUS43 KLSX 292300 AAD
TAFSUS
TAF AMD
KSUS 292312Z 2923/3018 29006KT P6SM BKN050
      TEMPO 2923/2924 30018G28KT 2SM +TSRA BKN050CB
     FM300000 27004KT P6SM SCT070
     FM301500 28011KT P6SM SCT040 SCT100=



000
FTUS43 KLSX 292300 AAC
TAFSUS
TAF AMD
KSUS 292302Z 2923/3018 29006KT P6SM BKN050
      TEMPO 2923/2924 30018G28KT 5SM -TSRA BKN050CB
     FM300000 27004KT P6SM SCT070
     FM301500 28011KT P6SM SCT040 SCT100=



000
FTUS43 KLSX 292300 AAB
TAFSUS
TAF AMD
KSUS 292300Z 2923/3018 29006KT P6SM VCTS BKN050CB
      TEMPO 2923/2924 30018G28KT 5SM -SHRA BKN050
     FM300000 27004KT P6SM SCT070
     FM301500 28011KT P6SM SCT040 SCT100=



000
FTUS43 KLSX 292200 AAA
TAFSUS
TAF AMD
KSUS 292247Z 2923/3018 29006KT P6SM -SHRA VCTS BKN050CB
     FM300000 27004KT P6SM SCT070
     FM301500 28011KT P6SM SCT040 SCT100=



000
FTUS43 KLSX 292100 AAB
TAFUIN
TAF AMD
KUIN 292147Z 2922/3018 29010KT P6SM -TSRA SCT050CB SCT100
      TEMPO 2922/2923 VRB15G30KT 5SM -TSRA BKN035CB
     FM300100 27005KT P6SM SCT060
     FM301600 31009KT P6SM SCT040=



000
FTUS43 KLSX 292100 AAB
TAFUIN
TAF AMD
KUIN 292147Z 2922/3018 29010KT P6SM -TSRA SCT050CB SCT100
      TEMPO 2922/2923 VRB15G30KT 5SM -TSRA BKN035CB
     FM300100 27005KT P6SM SCT060
     FM301600 31009KT P6SM SCT040=



000
FTUS43 KLSX 292100 AAA
TAFUIN
TAF AMD
KUIN 292109Z 2921/3018 29010KT P6SM VCTS SCT025CB BKN040
      TEMPO 2921/2922 4SM -TSRA BKN025CB
     FM300100 27005KT P6SM SCT060
     FM301600 31009KT P6SM SCT040=



000
FTUS43 KLSX 292000 AAA
TAFSTL
TAF AMD
KSTL 292059Z 2921/3024 31007KT P6SM SCT040
     FM300200 27004KT P6SM SCT070
     FM301500 28011KT P6SM SCT040 SCT100=



000
FTUS43 KLSX 292000 AAA
TAFSTL
TAF AMD
KSTL 292059Z 2921/3024 31007KT P6SM SCT040
     FM300200 27004KT P6SM SCT070
     FM301500 28011KT P6SM SCT040 SCT100=



000
FTUS43 KLSX 291700
TAFSTL
TAF
KSTL 291727Z 2918/3024 34010KT P6SM SCT025
     FM291900 31009KT P6SM SCT040
     FM300200 27004KT P6SM SCT070
     FM301500 28011KT P6SM SCT040 SCT100=



000
FTUS43 KLSX 291700
TAFSUS
TAF
KSUS 291727Z 2918/3018 30011KT P6SM BKN035
     FM291900 31009KT P6SM SCT040
     FM300200 27004KT P6SM SCT070
     FM301500 28011KT P6SM SCT040 SCT100=



000
FTUS43 KLSX 291700
TAFCOU
TAF
KCOU 291727Z 2918/3018 30012KT P6SM SCT040
     FM300100 27005KT P6SM SKC
     FM301600 28010KT P6SM SCT040=



000
FTUS43 KLSX 291700
TAFUIN
TAF
KUIN 291727Z 2918/3018 31010KT P6SM SCT020
     FM291900 30011KT P6SM BKN040
     FM300100 27005KT P6SM SCT060
     FM301600 31009KT P6SM SCT040=



000
FTUS43 KLSX 291400 AAB
TAFSUS
TAF AMD
KSUS 291420Z 2914/3012 34009KT P6SM SCT010 BKN012
      TEMPO 2914/2915 6SM BR BKN010
     FM291600 31012KT P6SM BKN020
     FM291900 31009KT P6SM SCT040
     FM300600 26004KT P6SM SCT070=



000
FTUS43 KLSX 291400 AAB
TAFSUS
TAF AMD
KSUS 291420Z 2914/3012 34009KT P6SM SCT010 BKN012
      TEMPO 2914/2915 6SM BR BKN010
     FM291600 31012KT P6SM BKN020
     FM291900 31009KT P6SM SCT040
     FM300600 26004KT P6SM SCT070=



000
FTUS43 KLSX 291400 AAB
TAFSTL
TAF AMD
KSTL 291418Z 2914/3018 32009KT P6SM SCT010 BKN019
      TEMPO 2914/2915 6SM BR BKN010
     FM291600 31012KT P6SM BKN020
     FM291900 31009KT P6SM SCT040
     FM300600 26004KT P6SM SCT070=



000
FTUS43 KLSX 291400 AAB
TAFSTL
TAF AMD
KSTL 291418Z 2914/3018 32009KT P6SM SCT010 BKN019
      TEMPO 2914/2915 6SM BR BKN010
     FM291600 31012KT P6SM BKN020
     FM291900 31009KT P6SM SCT040
     FM300600 26004KT P6SM SCT070=



000
FTUS43 KLSX 291400 AAB
TAFUIN
TAF AMD
KUIN 291417Z 2914/3012 33008KT P6SM BKN010
     FM291700 32012KT P6SM BKN025
     FM291900 31011KT P6SM BKN040
     FM300100 29010KT P6SM SCT060=



000
FTUS43 KLSX 291300 AAA
TAFUIN
TAF AMD
KUIN 291312Z 2913/3012 33008KT 5SM BR OVC005
     FM291500 33008KT 6SM BR BKN010
     FM291700 32012KT P6SM BKN025
     FM291900 31011KT P6SM BKN040
     FM300100 29010KT P6SM SCT060=



000
FTUS43 KLSX 291300 AAA
TAFSUS
TAF AMD
KSUS 291311Z 2913/3012 29008KT 6SM BR BKN010
      TEMPO 2913/2915 3SM BR BKN006
     FM291600 31012KT P6SM BKN020
     FM291900 31009KT P6SM SCT040
     FM300600 26004KT P6SM SCT070=



000
FTUS43 KLSX 291300 AAA
TAFSTL
TAF AMD
KSTL 291309Z 2913/3018 29008KT 6SM BR BKN010
      TEMPO 2913/2915 3SM BR BKN006
     FM291600 31012KT P6SM BKN020
     FM291900 31009KT P6SM SCT040
     FM300600 26004KT P6SM SCT070=



000
FTUS43 KLSX 291100
TAFCOU
TAF
KCOU 291139Z 2912/3012 28007KT P6SM SKC
     FM291500 32010KT P6SM SCT040
     FM300100 27005KT P6SM SKC=



000
FTUS43 KLSX 291100
TAFUIN
TAF
KUIN 291139Z 2912/3012 33008KT 3/4SM BR OVC005
     FM291500 33008KT 2SM BR BKN010
     FM291700 32012KT P6SM BKN025
     FM291900 31011KT P6SM BKN040
     FM300100 29010KT P6SM SCT060=



000
FTUS43 KLSX 291100
TAFSTL
TAF
KSTL 291139Z 2912/3018 27007KT P6SM SKC
     FM291300 29008KT 2SM BR BKN010
      TEMPO 2913/2915 3/4SM BR BKN003
     FM291600 31012KT P6SM BKN020
     FM291900 31009KT P6SM SCT040
     FM300600 26004KT P6SM SCT070=



000
FTUS43 KLSX 291100
TAFSUS
TAF
KSUS 291139Z 2912/3012 27005KT P6SM SKC
     FM291300 29008KT 2SM BR BKN010
      TEMPO 2913/2915 3/4SM BR BKN003
     FM291600 31012KT P6SM BKN020
     FM291900 31009KT P6SM SCT040
     FM300600 26004KT P6SM SCT070=



000
FTUS43 KLSX 291100
TAFCOU
TAF
KCOU 291139Z 2912/3012 28007KT P6SM SKC
     FM291500 32010KT P6SM SCT040
     FM300100 27005KT P6SM SKC=



000
FTUS43 KLSX 291100
TAFSTL
TAF
KSTL 291139Z 2912/3018 27007KT P6SM SKC
     FM291300 29008KT 2SM BR BKN010
      TEMPO 2913/2915 3/4SM BR BKN003
     FM291600 31012KT P6SM BKN020
     FM291900 31009KT P6SM SCT040
     FM300600 26004KT P6SM SCT070=



000
FTUS43 KLSX 291100
TAFUIN
TAF
KUIN 291139Z 2912/3012 33008KT 3/4SM BR OVC005
     FM291500 33008KT 2SM BR BKN010
     FM291700 32012KT P6SM BKN025
     FM291900 31011KT P6SM BKN040
     FM300100 29010KT P6SM SCT060=



000
FTUS43 KLSX 291100
TAFSUS
TAF
KSUS 291139Z 2912/3012 27005KT P6SM SKC
     FM291300 29008KT 2SM BR BKN010
      TEMPO 2913/2915 3/4SM BR BKN003
     FM291600 31012KT P6SM BKN020
     FM291900 31009KT P6SM SCT040
     FM300600 26004KT P6SM SCT070=



000
FTUS43 KLSX 291000 AAC
TAFSTL
TAF AMD
KSTL 291038Z 2911/3012 27007KT P6SM SKC
     FM291300 29008KT 6SM BR BKN010
      TEMPO 2913/2915 2SM BR BKN005
     FM291600 31012KT P6SM BKN030
     FM291900 31009KT P6SM SCT040
     FM300600 26004KT P6SM SCT070=



000
FTUS43 KLSX 291000 AAA
TAFSUS
TAF AMD
KSUS 291038Z 2911/3006 26007KT P6SM SKC
     FM291300 29008KT 6SM BR BKN010
      TEMPO 2913/2915 2SM BR BKN005
     FM291600 31012KT P6SM BKN030
     FM291900 31009KT P6SM SCT040=



000
FTUS43 KLSX 290900 AAB
TAFSTL
TAF AMD
KSTL 290901Z 2909/3012 27006KT P6SM SKC
     FM291200 29008KT P6SM SCT020
     FM291600 31012KT P6SM SCT040
     FM300600 26008KT P6SM SCT070=



000
FTUS43 KLSX 290900 AAB
TAFSTL
TAF AMD
KSTL 290901Z 2909/3012 27006KT P6SM SKC
     FM291200 29008KT P6SM SCT020
     FM291600 31012KT P6SM SCT040
     FM300600 26008KT P6SM SCT070=



000
FTUS43 KLSX 290800 AAB
TAFUIN
TAF AMD
KUIN 290833Z 2909/3006 30005KT 3/4SM BR BKN005
      TEMPO 2909/2913 1/4SM FG VV001
     FM291400 33005KT 2SM BR BKN010
     FM291500 33012G18KT P6SM SCT040
     FM300100 29010KT P6SM SCT060=



000
FTUS43 KLSX 290600 AAA
TAFSTL
TAF AMD
KSTL 290614Z 2906/3012 33005KT P6SM SCT020 BKN120
     FM290800 27006KT 6SM BR SKC
     FM291200 29008KT P6SM SCT020
     FM291600 31012KT P6SM SCT040
     FM300600 26008KT P6SM SCT070=



000
FTUS43 KLSX 290600 AAA
TAFUIN
TAF AMD
KUIN 290610Z 2906/3006 00000KT 1SM BR BKN010
      TEMPO 2906/2908 1/4SM FG
     FM290800 33005KT 2SM BR BKN012
      TEMPO 2908/2912 1/2SM FG VV002
     FM291400 33012G18KT P6SM SCT040
     FM300100 29010KT P6SM SCT060=



000
FTUS43 KLSX 290500
TAFSUS
TAF
KSUS 290520Z 2906/3006 23006KT P6SM VCTS SCT040CB
     FM290700 27005KT 4SM BR SKC
     FM291200 29006KT P6SM SCT020
     FM291600 31010KT P6SM SCT040
     FM300300 26005KT P6SM SCT070=



000
FTUS43 KLSX 290500
TAFCOU
TAF
KCOU 290520Z 2906/3006 28007KT P6SM SKC
     FM291500 32010KT P6SM SCT040
     FM300300 27008KT P6SM FEW050=



000
FTUS43 KLSX 290500
TAFSUS
TAF
KSUS 290520Z 2906/3006 23006KT P6SM VCTS SCT040CB
     FM290700 27005KT 4SM BR SKC
     FM291200 29006KT P6SM SCT020
     FM291600 31010KT P6SM SCT040
     FM300300 26005KT P6SM SCT070=



000
FTUS43 KLSX 290500
TAFSTL
TAF
KSTL 290520Z 2906/3012 24007KT P6SM VCTS SCT040CB
      TEMPO 2906/2907 3SM -TSRA OVC035CB
     FM290800 27006KT 6SM BR SKC
     FM291200 29008KT P6SM SCT020
     FM291600 31012KT P6SM SCT040
     FM300600 26008KT P6SM SCT070=



000
FTUS43 KLSX 290500
TAFCOU
TAF
KCOU 290520Z 2906/3006 28007KT P6SM SKC
     FM291500 32010KT P6SM SCT040
     FM300300 27008KT P6SM FEW050=



000
FTUS43 KLSX 290500
TAFUIN
TAF
KUIN 290520Z 2906/3006 VRB03KT 6SM BR SCT020 SCT100
      TEMPO 2906/2908 4SM BR
     FM290800 33005KT 2SM BR BKN012
     FM291400 33012G18KT P6SM SCT040
     FM300100 29010KT P6SM SCT060=



000
FTUS43 KLSX 290500
TAFUIN
TAF
KUIN 290520Z 2906/3006 VRB03KT 6SM BR SCT020 SCT100
      TEMPO 2906/2908 4SM BR
     FM290800 33005KT 2SM BR BKN012
     FM291400 33012G18KT P6SM SCT040
     FM300100 29010KT P6SM SCT060=



000
FTUS43 KLSX 290500
TAFSTL
TAF
KSTL 290520Z 2906/3012 24007KT P6SM VCTS SCT040CB
      TEMPO 2906/2907 3SM -TSRA OVC035CB
     FM290800 27006KT 6SM BR SKC
     FM291200 29008KT P6SM SCT020
     FM291600 31012KT P6SM SCT040
     FM300600 26008KT P6SM SCT070=



000
FTUS43 KLSX 290300 AAA
TAFUIN
TAF AMD
KUIN 290325Z 2903/2924 VRB03KT P6SM SCT020 SCT100
     FM290500 33005KT P6SM BKN020
     FM290900 33005KT 2SM BR BKN012
     FM291400 33009KT P6SM SCT030=



000
FTUS43 KLSX 290300 AAA
TAFUIN
TAF AMD
KUIN 290325Z 2903/2924 VRB03KT P6SM SCT020 SCT100
     FM290500 33005KT P6SM BKN020
     FM290900 33005KT 2SM BR BKN012
     FM291400 33009KT P6SM SCT030=



000
FTUS43 KLSX 290300 AAB
TAFSTL
TAF AMD
KSTL 290313Z 2903/3006 21006KT P6SM SCT050 SCT100
     FM290600 27007KT P6SM SKC
     FM291200 29006KT P6SM SCT020
     FM291600 30011KT P6SM SCT040=



000
FTUS43 KLSX 290300 AAA
TAFSUS
TAF AMD
KSUS 290313Z 2903/2924 23006KT P6SM SCT050 SCT100
     FM290600 27005KT P6SM SKC
     FM291200 29005KT P6SM SCT020
     FM291600 30009KT P6SM SCT040=



000
FTUS43 KLSX 290100 AAA
TAFSTL
TAF AMD
KSTL 290106Z 2901/3006 17008KT P6SM VCTS SCT050CB BKN100
      TEMPO 2901/2902 1/2SM +TSRA OVC015CB
     FM290400 23007KT P6SM SCT050 BKN100
     FM290900 28007KT P6SM SKC
     FM291600 30011KT P6SM SCT040=



000
FTUS43 KLSX 282300
TAFCOU
TAF
KCOU 282339Z 2900/2924 27012G22KT P6SM FEW050 FEW100
     FM290200 27008KT P6SM SCT250
     FM290600 28007KT P6SM SKC=



000
FTUS43 KLSX 282300
TAFSUS
TAF
KSUS 282339Z 2900/2924 17005KT P6SM VCTS SCT050CB BKN100
      TEMPO 2900/2902 5SM TSRA OVC030CB
     FM290400 23004KT P6SM SCT050 BKN100
     FM290900 28005KT P6SM SKC
     FM291600 30010KT P6SM SCT040=



000
FTUS43 KLSX 282300
TAFUIN
TAF
KUIN 282339Z 2900/2924 15007KT P6SM VCTS SCT050CB BKN100
     FM290200 VRB03KT P6SM SCT050 SCT100
     FM290500 33005KT P6SM SCT250
     FM290900 33005KT 2SM BR SCT012
     FM291400 33009KT P6SM SCT030=



000
FTUS43 KLSX 282300
TAFSTL
TAF
KSTL 282339Z 2900/3006 17008KT P6SM VCTS SCT050CB BKN100
      TEMPO 2900/2902 5SM TSRA OVC030CB
     FM290400 23007KT P6SM SCT050 BKN100
     FM290900 28007KT P6SM SKC
     FM291600 30011KT P6SM SCT040=



000
FTUS43 KLSX 282100 AAA
TAFCOU
TAF AMD
KCOU 282108Z 2821/2918 23013G24KT P6SM SCT050 BKN100
      TEMPO 2821/2901 3SM TSRA OVC025CB
     FM290200 26010KT P6SM SCT100
     FM290600 28007KT P6SM SKC=



000
FTUS43 KLSX 282100 AAA
TAFCOU
TAF AMD
KCOU 282108Z 2821/2918 23013G24KT P6SM SCT050 BKN100
      TEMPO 2821/2901 3SM TSRA OVC025CB
     FM290200 26010KT P6SM SCT100
     FM290600 28007KT P6SM SKC=



000
FTUS43 KLSX 282100 AAA
TAFSTL
TAF AMD
KSTL 282105Z 2821/2924 18012KT P6SM SCT050 BKN100
     FM282300 17008KT P6SM VCTS SCT050CB BKN100
      TEMPO 2823/2902 2SM +TSRA OVC020CB
     FM290400 23007KT P6SM SCT050 BKN100
     FM290900 28007KT P6SM SKC=



000
FTUS43 KLSX 282100 AAA
TAFSTL
TAF AMD
KSTL 282105Z 2821/2924 18012KT P6SM SCT050 BKN100
     FM282300 17008KT P6SM VCTS SCT050CB BKN100
      TEMPO 2823/2902 2SM +TSRA OVC020CB
     FM290400 23007KT P6SM SCT050 BKN100
     FM290900 28007KT P6SM SKC=



000
FTUS43 KLSX 281700 RRA
TAFUIN
TAF
KUIN 281746Z 2818/2918 20010KT P6SM SCT050 BKN100
     FM282000 17010KT P6SM VCTS SCT050CB BKN100
      TEMPO 2820/2823 1SM +TSRA OVC015CB
     FM290200 VRB03KT P6SM SCT020 BKN050
     FM290400 30007KT P6SM SCT250=



000
FTUS43 KLSX 281700 RRA
TAFCOU
TAF
KCOU 281746Z 2818/2918 23012KT P6SM SCT050 BKN100
     FM282200 23013G20KT P6SM SCT050 BKN100
      TEMPO 2822/2902 3SM TSRA OVC025CB
     FM290200 26010KT P6SM SCT100
     FM290600 28007KT P6SM SKC=



000
FTUS43 KLSX 281700 RRA
TAFSUS
TAF
KSUS 281746Z 2818/2918 23006KT P6SM VCSH SCT050 BKN100
     FM282300 21007KT P6SM VCTS SCT050CB BKN100
      TEMPO 2823/2902 2SM +TSRA OVC020CB
     FM290400 23005KT P6SM SCT050 BKN100
     FM290900 28005KT P6SM SKC=



000
FTUS43 KLSX 281700 RRA
TAFSTL
TAF
KSTL 281746Z 2818/2924 23008KT P6SM VCSH SCT050 BKN100
     FM282300 21008KT P6SM VCTS SCT050CB BKN100
      TEMPO 2823/2902 2SM +TSRA OVC020CB
     FM290400 23007KT P6SM SCT050 BKN100
     FM290900 28007KT P6SM SKC=



000
FTUS43 KLSX 281700 RRA
TAFSUS
TAF
KSUS 281746Z 2818/2918 23006KT P6SM VCSH SCT050 BKN100
     FM282300 21007KT P6SM VCTS SCT050CB BKN100
      TEMPO 2823/2902 2SM +TSRA OVC020CB
     FM290400 23005KT P6SM SCT050 BKN100
     FM290900 28005KT P6SM SKC=



000
FTUS43 KLSX 281700 RRA
TAFUIN
TAF
KUIN 281746Z 2818/2918 20010KT P6SM SCT050 BKN100
     FM282000 17010KT P6SM VCTS SCT050CB BKN100
      TEMPO 2820/2823 1SM +TSRA OVC015CB
     FM290200 VRB03KT P6SM SCT020 BKN050
     FM290400 30007KT P6SM SCT250=



000
FTUS43 KLSX 281700 RRA
TAFCOU
TAF
KCOU 281746Z 2818/2918 23012KT P6SM SCT050 BKN100
     FM282200 23013G20KT P6SM SCT050 BKN100
      TEMPO 2822/2902 3SM TSRA OVC025CB
     FM290200 26010KT P6SM SCT100
     FM290600 28007KT P6SM SKC=



000
FTUS43 KLSX 281700 RRA
TAFSTL
TAF
KSTL 281746Z 2818/2924 23008KT P6SM VCSH SCT050 BKN100
     FM282300 21008KT P6SM VCTS SCT050CB BKN100
      TEMPO 2823/2902 2SM +TSRA OVC020CB
     FM290400 23007KT P6SM SCT050 BKN100
     FM290900 28007KT P6SM SKC=



000
FTUS43 KLSX 281600 AAB
TAFSUS
TAF AMD
KSUS 281641Z 2817/2912 24008KT P6SM SCT050 BKN100
      TEMPO 2817/2819 -SHRA
     FM282300 21011G18KT P6SM VCTS SCT050CB BKN100
      TEMPO 2900/2902 3SM TSRA OVC030CB
     FM290400 23008KT P6SM SCT040 BKN080
     FM290900 25007KT P6SM SCT250=



000
FTUS43 KLSX 281600 AAB
TAFSUS
TAF AMD
KSUS 281641Z 2817/2912 24008KT P6SM SCT050 BKN100
      TEMPO 2817/2819 -SHRA
     FM282300 21011G18KT P6SM VCTS SCT050CB BKN100
      TEMPO 2900/2902 3SM TSRA OVC030CB
     FM290400 23008KT P6SM SCT040 BKN080
     FM290900 25007KT P6SM SCT250=



000
FTUS43 KLSX 281600 AAA
TAFSTL
TAF AMD
KSTL 281640Z 2817/2918 25009KT P6SM SCT050 BKN100
      TEMPO 2817/2819 -SHRA
     FM282300 21012G19KT P6SM VCTS SCT050CB BKN100
      TEMPO 2900/2902 3SM TSRA OVC030CB
     FM290400 23009KT P6SM SCT040 BKN080
     FM290900 25008KT P6SM SCT250
     FM291500 29012KT P6SM SCT040 BKN250=



000
FTUS43 KLSX 281600 AAA
TAFCOU
TAF AMD
KCOU 281639Z 2817/2912 24008KT P6SM SCT050 BKN100
      TEMPO 2817/2818 -SHRA
     FM282200 23013G20KT P6SM VCTS SCT050CB BKN100
      TEMPO 2823/2901 3SM TSRA OVC030CB
     FM290300 24008KT P6SM SCT050 BKN120
     FM290900 26008KT P6SM SCT250=



000
FTUS43 KLSX 281400 AAA
TAFUIN
TAF AMD
KUIN 281453Z 2815/2912 28012KT 5SM -SHRA VCTS SCT015 OVC035CB
      TEMPO 2815/2816 2SM TSRA BKN015CB OVC030
     FM281700 20010KT P6SM BKN050
     FM282100 20013G19KT P6SM VCTS SCT050CB BKN100
      TEMPO 2822/2824 3SM TSRA OVC030CB
     FM290200 24010KT P6SM BKN040
     FM290600 26008KT P6SM SCT040 BKN250=



000
FTUS43 KLSX 281200 AAA
TAFSUS
TAF AMD
KSUS 281208Z 2812/2912 VRB04KT P6SM SCT050 BKN250
     FM281500 24008KT P6SM SCT040 BKN120
     FM282300 21011G18KT P6SM VCTS SCT050CB BKN100
      TEMPO 2900/2902 3SM TSRA OVC030CB
     FM290400 23008KT P6SM SCT040 BKN080
     FM290900 25007KT P6SM SCT250=



000
FTUS43 KLSX 281200 AAA
TAFSUS
TAF AMD
KSUS 281208Z 2812/2912 VRB04KT P6SM SCT050 BKN250
     FM281500 24008KT P6SM SCT040 BKN120
     FM282300 21011G18KT P6SM VCTS SCT050CB BKN100
      TEMPO 2900/2902 3SM TSRA OVC030CB
     FM290400 23008KT P6SM SCT040 BKN080
     FM290900 25007KT P6SM SCT250=



000
FTUS43 KLSX 281100
TAFUIN
TAF
KUIN 281140Z 2812/2912 22006KT P6SM SCT080 BKN250
     FM281400 22010KT P6SM SCT035 BKN100
      TEMPO 2814/2816 5SM -TSRA BKN030CB
     FM282100 20013G19KT P6SM VCTS SCT050CB BKN100
      TEMPO 2822/2824 3SM TSRA OVC030CB
     FM290200 24010KT P6SM BKN040
     FM290600 26008KT P6SM SCT040 BKN250=



000
FTUS43 KLSX 281100
TAFSTL
TAF
KSTL 281140Z 2812/2918 VRB04KT P6SM SCT050 BKN250
     FM281500 24009KT P6SM SCT040 BKN120
     FM282300 21012G19KT P6SM VCTS SCT050CB BKN100
      TEMPO 2900/2902 3SM TSRA OVC030CB
     FM290400 23009KT P6SM SCT040 BKN080
     FM290900 25008KT P6SM SCT250
     FM291500 29012KT P6SM SCT040 BKN250=



000
FTUS43 KLSX 281100
TAFSUS
TAF
KSUS 281140Z 2812/2912 VRB03KT 5SM BR SCT050 BKN250
     FM281500 24008KT P6SM SCT040 BKN120
     FM282300 21011G18KT P6SM VCTS SCT050CB BKN100
      TEMPO 2900/2902 3SM TSRA OVC030CB
     FM290400 23008KT P6SM SCT040 BKN080
     FM290900 25007KT P6SM SCT250=



000
FTUS43 KLSX 281100
TAFCOU
TAF
KCOU 281140Z 2812/2912 21006KT P6SM SCT250
     FM281400 22011KT P6SM SCT040 BKN250
     FM282200 23013G20KT P6SM VCTS SCT050CB BKN100
      TEMPO 2823/2901 3SM TSRA OVC030CB
     FM290300 24008KT P6SM SCT050 BKN120
     FM290900 26008KT P6SM SCT250=



000
FTUS43 KLSX 281100
TAFSTL
TAF
KSTL 281140Z 2812/2918 VRB04KT P6SM SCT050 BKN250
     FM281500 24009KT P6SM SCT040 BKN120
     FM282300 21012G19KT P6SM VCTS SCT050CB BKN100
      TEMPO 2900/2902 3SM TSRA OVC030CB
     FM290400 23009KT P6SM SCT040 BKN080
     FM290900 25008KT P6SM SCT250
     FM291500 29012KT P6SM SCT040 BKN250=



000
FTUS43 KLSX 281100
TAFSUS
TAF
KSUS 281140Z 2812/2912 VRB03KT 5SM BR SCT050 BKN250
     FM281500 24008KT P6SM SCT040 BKN120
     FM282300 21011G18KT P6SM VCTS SCT050CB BKN100
      TEMPO 2900/2902 3SM TSRA OVC030CB
     FM290400 23008KT P6SM SCT040 BKN080
     FM290900 25007KT P6SM SCT250=



000
FTUS43 KLSX 281100
TAFUIN
TAF
KUIN 281140Z 2812/2912 22006KT P6SM SCT080 BKN250
     FM281400 22010KT P6SM SCT035 BKN100
      TEMPO 2814/2816 5SM -TSRA BKN030CB
     FM282100 20013G19KT P6SM VCTS SCT050CB BKN100
      TEMPO 2822/2824 3SM TSRA OVC030CB
     FM290200 24010KT P6SM BKN040
     FM290600 26008KT P6SM SCT040 BKN250=



000
FTUS43 KLSX 281100
TAFCOU
TAF
KCOU 281140Z 2812/2912 21006KT P6SM SCT250
     FM281400 22011KT P6SM SCT040 BKN250
     FM282200 23013G20KT P6SM VCTS SCT050CB BKN100
      TEMPO 2823/2901 3SM TSRA OVC030CB
     FM290300 24008KT P6SM SCT050 BKN120
     FM290900 26008KT P6SM SCT250=



000
FTUS43 KLSX 280900 AAA
TAFSTL
TAF AMD
KSTL 280909Z 2809/2912 VRB04KT P6SM SCT050
     FM281500 24007KT P6SM SCT040 BKN250
     FM282300 20012G18KT P6SM VCTS SCT050CB SCT100
     FM290400 24008KT P6SM BKN040 BKN070=



000
FTUS43 KLSX 280500
TAFSUS
TAF
KSUS 280520Z 2806/2906 VRB03KT 4SM BR SKC
      TEMPO 2808/2812 2SM BR
     FM281500 24007KT P6SM SCT040 BKN250
     FM282300 20012G18KT P6SM VCTS SCT050CB SCT100
     FM290400 24008KT P6SM BKN040 BKN070=



000
FTUS43 KLSX 280500
TAFCOU
TAF
KCOU 280520Z 2806/2906 VRB04KT P6SM SKC
      TEMPO 2809/2812 5SM BR
     FM281400 23010KT P6SM SCT040
     FM282100 22012G20KT P6SM VCTS SCT050CB SCT100
     FM290000 26008KT P6SM SCT050=



000
FTUS43 KLSX 280500
TAFSTL
TAF
KSTL 280520Z 2806/2912 VRB04KT P6SM SKC
     FM281500 24007KT P6SM SCT040 BKN250
     FM282300 20012G18KT P6SM VCTS SCT050CB SCT100
     FM290400 24008KT P6SM BKN040 BKN070=



000
FTUS43 KLSX 280500
TAFUIN
TAF
KUIN 280520Z 2806/2906 VRB04KT P6SM SKC
      TEMPO 2809/2812 4SM BR
     FM281400 23010KT P6SM SCT035 BKN100
     FM282100 20012G18KT P6SM VCTS SCT050CB BKN100
     FM290200 26008KT P6SM BKN040=



000
FTUS43 KLSX 280400 AAB
TAFSUS
TAF AMD
KSUS 280428Z 2804/2824 VRB03KT 4SM BR SKC
     FM280600 VRB03KT 2SM BR SKC
     FM281500 24007KT P6SM SCT040 BKN250
     FM282300 20012G18KT P6SM VCTS SCT050CB SCT100=



000
FTUS43 KLSX 280200 AAA
TAFSUS
TAF AMD
KSUS 280251Z 2803/2824 VRB03KT P6SM SKC
     FM280600 VRB03KT 3SM BR SKC
     FM281500 24007KT P6SM SCT040 BKN250
     FM282300 20012G18KT P6SM VCTS SCT050CB SCT100=



000
FTUS43 KLSX 280200 AAA
TAFSUS
TAF AMD
KSUS 280251Z 2803/2824 VRB03KT P6SM SKC
     FM280600 VRB03KT 3SM BR SKC
     FM281500 24007KT P6SM SCT040 BKN250
     FM282300 20012G18KT P6SM VCTS SCT050CB SCT100=



000
FTUS43 KLSX 280200 AAA
TAFSTL
TAF AMD
KSTL 280250Z 2803/2906 VRB04KT P6SM SKC
     FM281500 24007KT P6SM SCT040 BKN250
     FM282300 20012G18KT P6SM VCTS SCT050CB SCT100
     FM290400 24008KT P6SM BKN040 BKN080=



000
FTUS43 KLSX 280200 AAA
TAFSTL
TAF AMD
KSTL 280250Z 2803/2906 VRB04KT P6SM SKC
     FM281500 24007KT P6SM SCT040 BKN250
     FM282300 20012G18KT P6SM VCTS SCT050CB SCT100
     FM290400 24008KT P6SM BKN040 BKN080=



    US Dept of Commerce
    National Oceanic and Atmospheric Administration
    National Weather Service
    1325 East West Highway
    Silver Spring, MD 20910
    Page Author: NWS Internet Services Team
Disclaimer
Information Quality
Credits
Glossary
Privacy Policy
Freedom of Information Act (FOIA)
About Us
Career Opportunities